createdAt,value
2016-12-15T00:00:17.465Z,0
2016-12-15T00:01:17.292Z,0
2016-12-15T00:02:17.507Z,0
2016-12-15T00:03:17.258Z,0
2016-12-15T00:04:17.788Z,0
2016-12-15T00:05:17.331Z,0
2016-12-15T00:06:17.557Z,0
2016-12-15T00:07:16.760Z,0
2016-12-15T00:08:16.763Z,0
2016-12-15T00:09:18.695Z,0
2016-12-15T00:10:17.147Z,0
2016-12-15T00:11:18.626Z,0
2016-12-15T00:12:18.572Z,0
2016-12-15T00:13:17.695Z,0
2016-12-15T00:14:17.360Z,0
2016-12-15T00:15:17.980Z,0
2016-12-15T00:16:19.101Z,0
2016-12-15T00:17:17.630Z,0
2016-12-15T00:18:18.652Z,0
2016-12-15T00:19:18.060Z,0
2016-12-15T00:20:17.207Z,0
2016-12-15T00:21:17.625Z,0
2016-12-15T00:22:17.768Z,0
2016-12-15T00:23:17.602Z,0
2016-12-15T00:24:18.081Z,0
2016-12-15T00:25:17.460Z,0
2016-12-15T00:26:18.438Z,0
2016-12-15T00:27:18.032Z,0
2016-12-15T00:28:18.237Z,0
2016-12-15T00:29:18.208Z,0
2016-12-15T00:30:17.748Z,0
2016-12-15T00:31:18.546Z,0
2016-12-15T00:32:17.452Z,0
2016-12-15T00:33:18.486Z,0
2016-12-15T00:34:18.009Z,0
2016-12-15T00:35:18.966Z,0
2016-12-15T00:36:18.658Z,0
2016-12-15T00:37:18.100Z,0
2016-12-15T00:38:17.718Z,0
2016-12-15T00:39:18.099Z,0
2016-12-15T00:40:18.859Z,0
2016-12-15T00:41:17.757Z,0
2016-12-15T00:42:17.708Z,0
2016-12-15T00:43:17.788Z,0
2016-12-15T00:44:18.807Z,0
2016-12-15T00:45:19.014Z,0
2016-12-15T00:46:18.695Z,0
2016-12-15T00:47:18.215Z,0
2016-12-15T00:48:18.204Z,0
2016-12-15T00:49:18.771Z,0
2016-12-15T00:50:18.673Z,0
2016-12-15T00:51:17.991Z,0
2016-12-15T00:52:18.470Z,0
2016-12-15T00:53:18.410Z,0
2016-12-15T00:54:18.496Z,0
2016-12-15T00:55:18.516Z,0
2016-12-15T00:56:18.508Z,0
2016-12-15T00:57:18.508Z,0
2016-12-15T00:58:18.932Z,0
2016-12-15T00:59:18.859Z,0
2016-12-15T01:00:18.330Z,0
2016-12-15T01:01:19.250Z,0
2016-12-15T01:02:19.569Z,0
2016-12-15T01:03:18.560Z,0
2016-12-15T01:04:18.816Z,0
2016-12-15T01:05:18.766Z,0
2016-12-15T01:06:18.526Z,0
2016-12-15T01:07:18.813Z,0
2016-12-15T01:08:18.361Z,0
2016-12-15T01:09:18.364Z,0
2016-12-15T01:10:19.385Z,0
2016-12-15T01:11:19.285Z,0
2016-12-15T01:12:19.421Z,0
2016-12-15T01:13:18.514Z,0
2016-12-15T01:14:18.630Z,0
2016-12-15T01:15:18.451Z,0
2016-12-15T01:16:19.387Z,0
2016-12-15T01:17:18.312Z,0
2016-12-15T01:18:18.830Z,0
2016-12-15T01:19:19.222Z,0
2016-12-15T01:20:18.412Z,0
2016-12-15T01:21:18.561Z,0
2016-12-15T01:22:19.355Z,0
2016-12-15T01:23:18.747Z,0
2016-12-15T01:24:19.360Z,0
2016-12-15T01:25:19.398Z,0
2016-12-15T01:26:18.779Z,0
2016-12-15T01:27:20.193Z,0
2016-12-15T01:28:19.627Z,0
2016-12-15T01:29:19.189Z,0
2016-12-15T01:30:18.665Z,0
2016-12-15T01:31:18.253Z,0
2016-12-15T01:32:18.547Z,0
2016-12-15T01:33:19.403Z,0
2016-12-15T01:34:19.146Z,0
2016-12-15T01:35:19.083Z,0
2016-12-15T01:36:18.914Z,0
2016-12-15T01:37:18.227Z,0
2016-12-15T01:38:19.371Z,0
2016-12-15T01:39:18.682Z,0
2016-12-15T01:40:19.251Z,0
2016-12-15T01:41:19.786Z,0
2016-12-15T01:42:18.837Z,0
2016-12-15T01:43:19.791Z,0
2016-12-15T01:44:19.486Z,0
2016-12-15T01:45:18.994Z,0
2016-12-15T01:46:19.578Z,0
2016-12-15T01:47:19.055Z,0
2016-12-15T01:48:19.177Z,0
2016-12-15T01:49:20.714Z,0
2016-12-15T01:50:19.094Z,0
2016-12-15T01:51:20.567Z,0
2016-12-15T01:52:19.026Z,0
2016-12-15T01:53:18.912Z,0
2016-12-15T01:54:19.542Z,0
2016-12-15T01:55:19.833Z,0
2016-12-15T01:56:18.928Z,0
2016-12-15T01:57:19.635Z,0
2016-12-15T01:58:19.978Z,0
2016-12-15T01:59:19.022Z,0
2016-12-15T02:00:19.419Z,0
2016-12-15T02:01:19.528Z,0
2016-12-15T02:02:19.314Z,0
2016-12-15T02:03:20.034Z,0
2016-12-15T02:04:20.760Z,0
2016-12-15T02:05:20.785Z,0
2016-12-15T02:06:20.858Z,0
2016-12-15T02:07:19.303Z,0
2016-12-15T02:08:20.538Z,0
2016-12-15T02:09:18.929Z,0
2016-12-15T02:10:18.944Z,0
2016-12-15T02:11:19.282Z,0
2016-12-15T02:12:20.107Z,0
2016-12-15T02:13:19.826Z,0
2016-12-15T02:14:19.823Z,0
2016-12-15T02:15:19.523Z,0
2016-12-15T02:16:19.799Z,0
2016-12-15T02:17:19.409Z,0
2016-12-15T02:18:19.844Z,0
2016-12-15T02:19:19.337Z,0
2016-12-15T02:20:19.408Z,0
2016-12-15T02:21:19.370Z,0
2016-12-15T02:22:19.630Z,0
2016-12-15T02:23:20.152Z,0
2016-12-15T02:24:20.241Z,0
2016-12-15T02:25:19.901Z,0
2016-12-15T02:26:20.558Z,0
2016-12-15T02:27:19.705Z,0
2016-12-15T02:28:19.288Z,0
2016-12-15T02:29:18.998Z,0
2016-12-15T02:30:19.772Z,0
2016-12-15T02:31:19.145Z,0
2016-12-15T02:32:19.693Z,0
2016-12-15T02:33:19.134Z,0
2016-12-15T02:34:20.014Z,0
2016-12-15T02:35:20.030Z,0
2016-12-15T02:36:20.741Z,0
2016-12-15T02:37:21.870Z,0
2016-12-15T02:38:20.230Z,0
2016-12-15T02:39:19.800Z,0
2016-12-15T02:40:19.689Z,0
2016-12-15T02:41:20.685Z,0
2016-12-15T02:42:19.573Z,0
2016-12-15T02:43:21.395Z,0
2016-12-15T02:44:20.696Z,0
2016-12-15T02:45:20.406Z,0
2016-12-15T02:46:21.141Z,0
2016-12-15T02:47:20.131Z,0
2016-12-15T02:48:19.680Z,0
2016-12-15T02:49:19.214Z,0
2016-12-15T02:50:20.561Z,0
2016-12-15T02:51:21.230Z,0
2016-12-15T02:52:20.975Z,0
2016-12-15T02:53:21.185Z,0
2016-12-15T02:54:19.466Z,0
2016-12-15T02:55:20.572Z,0
2016-12-15T02:56:20.625Z,0
2016-12-15T02:57:20.271Z,0
2016-12-15T02:58:19.691Z,0
2016-12-15T02:59:20.998Z,0
2016-12-15T03:00:19.933Z,0
2016-12-15T03:01:20.937Z,0
2016-12-15T03:02:19.924Z,0
2016-12-15T03:03:20.649Z,0
2016-12-15T03:04:19.734Z,0
2016-12-15T03:05:20.520Z,0
2016-12-15T03:06:20.565Z,0
2016-12-15T03:07:19.862Z,0
2016-12-15T03:08:21.309Z,0
2016-12-15T03:09:19.968Z,0
2016-12-15T03:10:20.655Z,0
2016-12-15T03:11:20.705Z,0
2016-12-15T03:12:20.990Z,0
2016-12-15T03:13:21.401Z,0
2016-12-15T03:14:19.407Z,0
2016-12-15T03:15:20.268Z,0
2016-12-15T03:16:21.807Z,0
2016-12-15T03:17:21.608Z,0
2016-12-15T03:18:21.067Z,0
2016-12-15T03:19:20.007Z,0
2016-12-15T03:20:21.158Z,0
2016-12-15T03:21:21.169Z,0
2016-12-15T03:22:20.921Z,0
2016-12-15T03:23:20.894Z,0
2016-12-15T03:24:20.835Z,0
2016-12-15T03:25:20.504Z,0
2016-12-15T03:26:20.650Z,0
2016-12-15T03:27:24.572Z,0
2016-12-15T03:28:21.044Z,0
2016-12-15T03:29:20.889Z,0
2016-12-15T03:30:21.235Z,0
2016-12-15T03:31:21.892Z,0
2016-12-15T03:32:21.118Z,0
2016-12-15T03:33:21.188Z,0
2016-12-15T03:34:21.436Z,0
2016-12-15T03:35:20.260Z,0
2016-12-15T03:36:21.901Z,0
2016-12-15T03:37:20.603Z,0
2016-12-15T03:38:21.683Z,0
2016-12-15T03:39:21.129Z,0
2016-12-15T03:40:20.691Z,0
2016-12-15T03:41:21.039Z,0
2016-12-15T03:42:20.139Z,0
2016-12-15T03:43:21.106Z,0
2016-12-15T03:44:21.900Z,0
2016-12-15T03:45:21.465Z,0
2016-12-15T03:46:21.303Z,0
2016-12-15T03:47:20.647Z,0
2016-12-15T03:48:20.835Z,0
2016-12-15T03:49:20.968Z,0
2016-12-15T03:50:20.474Z,0
2016-12-15T03:51:21.136Z,0
2016-12-15T03:52:21.015Z,0
2016-12-15T03:53:20.976Z,0
2016-12-15T03:54:21.011Z,0
2016-12-15T03:55:22.038Z,0
2016-12-15T03:56:20.926Z,0
2016-12-15T03:57:21.731Z,0
2016-12-15T03:58:21.407Z,0
2016-12-15T03:59:21.895Z,0
2016-12-15T04:00:20.848Z,0
2016-12-15T04:01:21.709Z,0
2016-12-15T04:02:21.852Z,0
2016-12-15T04:03:21.823Z,0
2016-12-15T04:04:21.304Z,0
2016-12-15T04:05:21.504Z,0
2016-12-15T04:06:22.074Z,0
2016-12-15T04:07:21.198Z,0
2016-12-15T04:08:22.224Z,0
2016-12-15T04:09:21.470Z,0
2016-12-15T04:10:21.785Z,0
2016-12-15T04:11:21.289Z,0
2016-12-15T04:12:20.986Z,0
2016-12-15T04:13:22.197Z,0
2016-12-15T04:14:20.787Z,0
2016-12-15T04:15:21.821Z,0
2016-12-15T04:16:21.706Z,0
2016-12-15T04:17:21.194Z,0
2016-12-15T04:18:22.518Z,0
2016-12-15T04:19:21.111Z,0
2016-12-15T04:20:22.047Z,0
2016-12-15T04:21:22.446Z,0
2016-12-15T04:22:21.671Z,0
2016-12-15T04:23:21.140Z,0
2016-12-15T04:24:21.645Z,0
2016-12-15T04:25:21.651Z,0
2016-12-15T04:26:22.134Z,0
2016-12-15T04:27:23.768Z,0
2016-12-15T04:28:21.390Z,0
2016-12-15T04:29:21.783Z,0
2016-12-15T04:30:22.527Z,0
2016-12-15T04:31:22.624Z,0
2016-12-15T04:32:21.448Z,0
2016-12-15T04:33:21.648Z,0
2016-12-15T04:34:21.477Z,0
2016-12-15T04:35:22.964Z,0
2016-12-15T04:36:22.595Z,0
2016-12-15T04:37:21.791Z,0
2016-12-15T04:38:22.100Z,0
2016-12-15T04:39:22.209Z,0
2016-12-15T04:40:21.697Z,0
2016-12-15T04:41:22.324Z,0
2016-12-15T04:42:21.988Z,0
2016-12-15T04:43:21.555Z,0
2016-12-15T04:44:21.628Z,0
2016-12-15T04:45:21.977Z,0
2016-12-15T04:46:22.149Z,0
2016-12-15T04:47:22.178Z,0
2016-12-15T04:48:22.867Z,0
2016-12-15T04:49:21.838Z,0
2016-12-15T04:50:22.844Z,0
2016-12-15T04:51:23.421Z,0
2016-12-15T04:52:21.255Z,0
2016-12-15T04:53:21.937Z,0
2016-12-15T04:54:22.322Z,0
2016-12-15T04:55:22.497Z,0
2016-12-15T04:56:22.565Z,0
2016-12-15T04:57:22.806Z,0
2016-12-15T04:58:22.060Z,0
2016-12-15T04:59:22.275Z,0
2016-12-15T05:00:22.240Z,0
2016-12-15T05:01:22.273Z,0
2016-12-15T05:02:23.118Z,0
2016-12-15T05:03:22.565Z,0
2016-12-15T05:04:22.192Z,0
2016-12-15T05:05:22.815Z,0
2016-12-15T05:06:22.195Z,0
2016-12-15T05:07:21.741Z,0
2016-12-15T05:08:22.411Z,0
2016-12-15T05:09:22.229Z,0
2016-12-15T05:10:21.607Z,0
2016-12-15T05:11:22.129Z,0
2016-12-15T05:12:23.418Z,0
2016-12-15T05:13:24.806Z,0
2016-12-15T05:14:22.483Z,0
2016-12-15T05:15:22.197Z,0
2016-12-15T05:16:22.373Z,0
2016-12-15T05:17:23.323Z,0
2016-12-15T05:18:25.018Z,0
2016-12-15T05:19:23.775Z,0
2016-12-15T05:20:22.911Z,0
2016-12-15T05:21:24.355Z,0
2016-12-15T05:22:24.125Z,0
2016-12-15T05:23:23.668Z,0
2016-12-15T05:24:23.751Z,0
2016-12-15T05:25:24.151Z,0
2016-12-15T05:26:23.229Z,0
2016-12-15T05:27:23.835Z,0
2016-12-15T05:28:24.086Z,0
2016-12-15T05:29:24.474Z,0
2016-12-15T05:30:23.799Z,0
2016-12-15T05:31:23.973Z,0
2016-12-15T05:32:23.588Z,0
2016-12-15T05:33:25.065Z,0
2016-12-15T05:34:23.258Z,0
2016-12-15T05:35:24.295Z,0
2016-12-15T05:36:23.951Z,0
2016-12-15T05:37:22.960Z,0
2016-12-15T05:38:24.784Z,0
2016-12-15T05:39:23.900Z,0
2016-12-15T05:40:23.843Z,0
2016-12-15T05:41:23.589Z,0
2016-12-15T05:42:24.685Z,0
2016-12-15T05:43:24.251Z,0
2016-12-15T05:44:25.230Z,0
2016-12-15T05:45:24.066Z,0
2016-12-15T05:46:23.490Z,0
2016-12-15T05:47:23.650Z,0
2016-12-15T05:48:23.759Z,0
2016-12-15T05:49:23.991Z,0
2016-12-15T05:50:23.498Z,0
2016-12-15T05:51:24.291Z,0
2016-12-15T05:52:24.342Z,0
2016-12-15T05:53:26.524Z,0
2016-12-15T05:54:23.906Z,0
2016-12-15T05:55:23.764Z,0
2016-12-15T05:56:23.019Z,0
2016-12-15T05:57:23.327Z,0
2016-12-15T05:58:23.236Z,0
2016-12-15T05:59:23.691Z,0
2016-12-15T06:00:24.489Z,0
2016-12-15T06:01:25.646Z,0
2016-12-15T06:02:25.176Z,0
2016-12-15T06:03:25.114Z,0
2016-12-15T06:04:25.133Z,0
2016-12-15T06:05:25.440Z,0
2016-12-15T06:06:24.201Z,0
2016-12-15T06:07:24.207Z,0
2016-12-15T06:08:23.701Z,0
2016-12-15T06:09:23.002Z,0
2016-12-15T06:10:23.288Z,0
2016-12-15T06:11:22.926Z,0
2016-12-15T06:12:24.669Z,0
2016-12-15T06:13:23.763Z,0
2016-12-15T06:14:23.969Z,0
2016-12-15T06:15:24.115Z,0
2016-12-15T06:16:23.811Z,0
2016-12-15T06:17:22.832Z,0
2016-12-15T06:18:24.381Z,0
2016-12-15T06:19:24.696Z,0
2016-12-15T06:20:24.655Z,0
2016-12-15T06:21:24.869Z,0
2016-12-15T06:22:25.453Z,0
2016-12-15T06:23:24.907Z,0
2016-12-15T06:24:25.582Z,0
2016-12-15T06:25:24.188Z,0
2016-12-15T06:26:24.065Z,0
2016-12-15T06:27:24.703Z,0
2016-12-15T06:28:25.724Z,0
2016-12-15T06:29:24.516Z,0
2016-12-15T06:30:25.429Z,0
2016-12-15T06:31:25.605Z,0
2016-12-15T06:32:24.953Z,0
2016-12-15T06:33:26.904Z,0
2016-12-15T06:34:25.929Z,0
2016-12-15T06:35:24.401Z,0
2016-12-15T06:36:26.329Z,0
2016-12-15T06:37:24.490Z,0
2016-12-15T06:38:24.545Z,0
2016-12-15T06:39:26.648Z,0
2016-12-15T06:40:24.804Z,0
2016-12-15T06:41:25.583Z,0
2016-12-15T06:42:26.418Z,0
2016-12-15T06:43:24.337Z,0
2016-12-15T06:46:23.776Z,0
2016-12-15T06:47:23.944Z,0
2016-12-15T06:48:25.292Z,0
2016-12-15T06:49:25.314Z,0
2016-12-15T06:50:25.161Z,0
2016-12-15T06:51:24.289Z,0
2016-12-15T06:52:24.082Z,0
2016-12-15T06:53:25.620Z,0
2016-12-15T06:54:23.013Z,0
2016-12-15T06:55:24.507Z,0
2016-12-15T06:56:23.764Z,0
2016-12-15T06:57:23.704Z,0
2016-12-15T06:58:24.091Z,0
2016-12-15T06:59:23.642Z,0
2016-12-15T07:00:24.825Z,0
2016-12-15T07:01:25.815Z,0
2016-12-15T07:02:25.450Z,0
2016-12-15T07:03:28.220Z,0
2016-12-15T07:04:24.151Z,0
2016-12-15T07:05:23.814Z,0
2016-12-15T07:06:24.405Z,0
2016-12-15T07:07:24.307Z,0
2016-12-15T07:08:24.724Z,0
2016-12-15T07:09:25.660Z,0
2016-12-15T07:10:23.947Z,0
2016-12-15T07:11:23.950Z,0
2016-12-15T07:12:24.885Z,0
2016-12-15T07:13:26.131Z,0
2016-12-15T07:14:24.916Z,0
2016-12-15T07:15:24.590Z,0
2016-12-15T07:16:23.807Z,0
2016-12-15T07:17:25.712Z,0
2016-12-15T07:18:23.980Z,5
2016-12-15T07:19:24.076Z,5
2016-12-15T07:20:23.731Z,5
2016-12-15T07:21:23.772Z,5
2016-12-15T07:22:24.082Z,5
2016-12-15T07:23:24.472Z,5
2016-12-15T07:24:23.833Z,5
2016-12-15T07:25:24.792Z,5
2016-12-15T07:26:24.348Z,5
2016-12-15T07:27:24.724Z,5
2016-12-15T07:28:24.961Z,5
2016-12-15T07:29:25.500Z,5
2016-12-15T07:30:25.283Z,10
2016-12-15T07:31:24.506Z,10
2016-12-15T07:32:25.161Z,10
2016-12-15T07:33:23.910Z,10
2016-12-15T07:34:24.959Z,10
2016-12-15T07:35:25.855Z,10
2016-12-15T07:36:26.003Z,10
2016-12-15T07:37:23.588Z,15
2016-12-15T07:38:25.599Z,15
2016-12-15T07:39:24.618Z,15
2016-12-15T07:40:24.301Z,15
2016-12-15T07:41:26.217Z,15
2016-12-15T07:42:25.025Z,15
2016-12-15T07:43:25.562Z,15
2016-12-15T07:44:25.722Z,20
2016-12-15T07:45:24.375Z,20
2016-12-15T07:46:24.264Z,20
2016-12-15T07:47:24.390Z,20
2016-12-15T07:48:25.978Z,20
2016-12-15T07:49:24.836Z,25
2016-12-15T07:50:24.515Z,25
2016-12-15T07:51:29.720Z,25
2016-12-15T07:52:25.167Z,25
2016-12-15T07:53:26.455Z,25
2016-12-15T07:54:25.381Z,25
2016-12-15T07:55:23.318Z,30
2016-12-15T07:56:24.968Z,30
2016-12-15T07:57:24.867Z,25
2016-12-15T07:58:24.964Z,30
2016-12-15T07:59:25.446Z,30
2016-12-15T08:00:25.865Z,30
2016-12-15T08:01:25.898Z,30
2016-12-15T08:02:24.556Z,35
2016-12-15T08:03:25.395Z,35
2016-12-15T08:04:25.087Z,30
2016-12-15T08:05:24.859Z,35
2016-12-15T08:06:25.175Z,35
2016-12-15T08:07:24.255Z,35
2016-12-15T08:08:24.819Z,35
2016-12-15T08:09:24.303Z,35
2016-12-15T08:10:24.934Z,40
2016-12-15T08:11:25.483Z,40
2016-12-15T08:12:25.263Z,40
2016-12-15T08:13:24.289Z,40
2016-12-15T08:14:24.487Z,45
2016-12-15T08:15:25.246Z,45
2016-12-15T08:16:24.448Z,45
2016-12-15T08:17:24.780Z,45
2016-12-15T08:18:25.248Z,45
2016-12-15T08:19:24.768Z,45
2016-12-15T08:20:25.571Z,45
2016-12-15T08:21:25.796Z,45
2016-12-15T08:22:26.006Z,45
2016-12-15T08:23:24.924Z,45
2016-12-15T08:24:25.169Z,45
2016-12-15T08:25:24.869Z,50
2016-12-15T08:26:24.135Z,50
2016-12-15T08:27:25.646Z,50
2016-12-15T08:28:24.503Z,50
2016-12-15T08:29:24.508Z,50
2016-12-15T08:30:25.012Z,55
2016-12-15T08:31:24.280Z,55
2016-12-15T08:32:24.216Z,55
2016-12-15T08:33:24.327Z,55
2016-12-15T08:34:25.443Z,55
2016-12-15T08:35:25.336Z,55
2016-12-15T08:36:26.001Z,60
2016-12-15T08:37:25.113Z,60
2016-12-15T08:38:27.154Z,60
2016-12-15T08:39:25.436Z,60
2016-12-15T08:40:26.111Z,60
2016-12-15T08:41:25.707Z,60
2016-12-15T08:42:24.806Z,60
2016-12-15T08:43:26.058Z,60
2016-12-15T08:44:25.282Z,60
2016-12-15T08:45:26.156Z,60
2016-12-15T08:46:25.301Z,60
2016-12-15T08:47:24.965Z,60
2016-12-15T08:48:25.005Z,65
2016-12-15T08:49:25.565Z,65
2016-12-15T08:50:26.358Z,70
2016-12-15T08:51:25.094Z,70
2016-12-15T08:52:24.800Z,70
2016-12-15T08:53:26.044Z,65
2016-12-15T08:54:24.719Z,70
2016-12-15T08:58:56.671Z,70
2016-12-15T09:02:30.005Z,85
2016-12-15T09:04:30.250Z,85
2016-12-15T09:05:46.078Z,80
2016-12-15T09:09:33.951Z,90
2016-12-15T09:18:29.067Z,90
2016-12-15T09:20:47.716Z,90
2016-12-15T09:21:59.699Z,95
2016-12-15T09:22:58.177Z,95
2016-12-15T09:27:29.568Z,105
2016-12-15T09:34:41.443Z,130
2016-12-15T09:38:29.602Z,155
2016-12-15T09:43:25.233Z,150
2016-12-15T09:47:55.876Z,150
2016-12-15T09:54:02.229Z,125
2016-12-15T10:03:49.731Z,100
2016-12-15T10:12:03.359Z,105
2016-12-15T10:12:48.451Z,110
2016-12-15T10:24:46.088Z,115
2016-12-15T10:31:31.224Z,120
2016-12-15T10:33:31.115Z,120
2016-12-15T10:35:45.827Z,135
2016-12-15T10:39:46.114Z,130
2016-12-15T10:47:31.719Z,145
2016-12-15T10:48:31.508Z,145
2016-12-15T10:50:31.047Z,140
2016-12-15T10:56:31.661Z,145
2016-12-15T10:57:31.219Z,145
2016-12-15T11:00:30.570Z,160
2016-12-15T11:04:43.519Z,180
2016-12-15T11:07:46.659Z,210
2016-12-15T11:17:37.799Z,205
2016-12-15T11:19:32.006Z,210
2016-12-15T11:25:15.220Z,205
2016-12-15T11:26:03.090Z,210
2016-12-15T11:31:14.837Z,210
2016-12-15T11:31:57.432Z,215
2016-12-15T11:36:02.454Z,230
2016-12-15T11:37:14.189Z,245
2016-12-15T11:39:02.897Z,245
2016-12-15T11:42:02.307Z,245
2016-12-15T11:43:02.575Z,250
2016-12-15T11:45:58.286Z,270
2016-12-15T11:55:15.530Z,235
2016-12-15T11:56:18.742Z,235
2016-12-15T11:58:14.217Z,240
2016-12-15T11:59:16.109Z,235
2016-12-15T12:05:57.770Z,230
2016-12-15T12:09:01.886Z,215
2016-12-15T12:10:02.938Z,215
2016-12-15T12:11:01.997Z,210
2016-12-15T12:12:04.038Z,215
2016-12-15T12:16:01.298Z,205
2016-12-15T12:17:02.982Z,210
2016-12-15T12:27:03.374Z,185
2016-12-15T12:29:02.285Z,190
2016-12-15T12:30:03.855Z,190
2016-12-15T12:43:02.053Z,190
2016-12-15T12:44:03.641Z,185
2016-12-15T12:48:58.680Z,175
2016-12-15T12:52:29.952Z,155
2016-12-15T12:52:59.703Z,150
2016-12-15T12:57:06.312Z,140
2016-12-15T13:00:19.946Z,130
2016-12-15T13:02:05.023Z,130
2016-12-15T13:05:03.926Z,130
2016-12-15T13:06:04.304Z,130
2016-12-15T13:07:00.300Z,130
2016-12-15T13:13:06.054Z,120
2016-12-15T13:15:04.155Z,120
2016-12-15T13:21:04.570Z,120
2016-12-15T13:28:03.778Z,110
2016-12-15T13:34:22.037Z,95
2016-12-15T13:37:02.092Z,95
2016-12-15T13:45:46.341Z,90
2016-12-15T13:52:59.726Z,90
2016-12-15T13:55:45.987Z,85
2016-12-15T13:58:44.846Z,80
2016-12-15T13:59:45.502Z,75
2016-12-15T14:00:40.872Z,75
2016-12-15T14:01:40.870Z,70
2016-12-15T14:02:40.527Z,70
2016-12-15T14:03:41.763Z,70
2016-12-15T14:04:41.436Z,70
2016-12-15T14:05:40.423Z,65
2016-12-15T14:06:40.881Z,65
2016-12-15T14:07:40.367Z,65
2016-12-15T14:08:40.412Z,60
2016-12-15T14:09:40.521Z,60
2016-12-15T14:10:40.381Z,60
2016-12-15T14:11:40.162Z,55
2016-12-15T14:12:40.658Z,55
2016-12-15T14:13:41.168Z,55
2016-12-15T14:14:41.536Z,55
2016-12-15T14:15:42.259Z,50
2016-12-15T14:16:40.755Z,50
2016-12-15T14:17:40.714Z,50
2016-12-15T14:18:40.409Z,50
2016-12-15T14:19:40.488Z,50
2016-12-15T14:20:41.203Z,50
2016-12-15T14:21:40.555Z,45
2016-12-15T14:22:40.789Z,45
2016-12-15T14:23:41.841Z,45
2016-12-15T14:24:41.554Z,45
2016-12-15T14:25:41.517Z,45
2016-12-15T14:26:40.393Z,40
2016-12-15T14:27:40.000Z,40
2016-12-15T14:28:41.421Z,40
2016-12-15T14:29:40.223Z,40
2016-12-15T14:30:40.647Z,40
2016-12-15T14:31:40.599Z,45
2016-12-15T14:32:40.610Z,45
2016-12-15T14:33:40.613Z,45
2016-12-15T14:34:40.932Z,45
2016-12-15T14:35:42.148Z,40
2016-12-15T14:36:41.299Z,40
2016-12-15T14:37:40.326Z,35
2016-12-15T14:38:41.307Z,35
2016-12-15T14:39:41.242Z,35
2016-12-15T14:40:41.291Z,35
2016-12-15T14:41:41.683Z,35
2016-12-15T14:42:40.503Z,30
2016-12-15T14:43:41.458Z,30
2016-12-15T14:44:40.669Z,30
2016-12-15T14:45:41.341Z,30
2016-12-15T14:46:42.035Z,25
2016-12-15T14:47:40.975Z,25
2016-12-15T14:48:42.406Z,25
2016-12-15T14:49:41.325Z,25
2016-12-15T14:50:41.151Z,20
2016-12-15T14:51:40.647Z,20
2016-12-15T14:52:42.410Z,20
2016-12-15T14:53:40.645Z,15
2016-12-15T14:54:41.906Z,15
2016-12-15T14:55:41.296Z,15
2016-12-15T14:56:42.198Z,15
2016-12-15T14:57:41.729Z,15
2016-12-15T14:58:41.120Z,15
2016-12-15T14:59:41.798Z,10
2016-12-15T15:00:42.475Z,10
2016-12-15T15:01:41.209Z,10
2016-12-15T15:02:42.027Z,10
2016-12-15T15:03:41.732Z,10
2016-12-15T15:04:43.597Z,10
2016-12-15T15:05:40.608Z,10
2016-12-15T15:06:53.564Z,5
2016-12-15T15:07:41.866Z,5
2016-12-15T15:08:41.470Z,5
2016-12-15T15:09:41.732Z,5
2016-12-15T15:10:41.787Z,5
2016-12-15T15:11:43.141Z,5
2016-12-15T15:12:43.205Z,5
2016-12-15T15:13:42.593Z,5
2016-12-15T15:14:42.834Z,5
2016-12-15T15:15:42.371Z,0
2016-12-15T15:16:43.931Z,0
2016-12-15T15:17:42.376Z,0
2016-12-15T15:20:42.062Z,0
2016-12-15T15:21:42.535Z,0
2016-12-15T15:22:42.249Z,0
2016-12-15T15:23:42.316Z,0
2016-12-15T15:24:42.866Z,0
2016-12-15T15:25:43.324Z,0
2016-12-15T15:26:44.853Z,0
2016-12-15T15:27:41.879Z,0
2016-12-15T15:28:44.030Z,0
2016-12-15T15:29:42.994Z,0
2016-12-15T15:30:42.972Z,0
2016-12-15T15:31:42.996Z,0
2016-12-15T15:32:43.508Z,0
2016-12-15T15:33:43.984Z,0
2016-12-15T15:34:44.153Z,0
2016-12-15T15:35:42.986Z,0
2016-12-15T15:36:42.731Z,0
2016-12-15T15:37:42.789Z,0
2016-12-15T15:38:44.580Z,0
2016-12-15T15:39:44.154Z,0
2016-12-15T15:40:44.746Z,0
2016-12-15T15:41:44.551Z,0
2016-12-15T15:42:45.452Z,0
2016-12-15T15:43:43.721Z,0
2016-12-15T15:44:43.599Z,0
2016-12-15T15:45:43.137Z,0
2016-12-15T15:46:42.887Z,0
2016-12-15T15:47:44.917Z,0
2016-12-15T15:48:45.157Z,0
2016-12-15T15:49:43.227Z,0
2016-12-15T15:50:43.181Z,0
2016-12-15T15:51:44.109Z,0
2016-12-15T15:52:43.806Z,0
2016-12-15T15:53:44.085Z,0
2016-12-15T15:54:43.324Z,0
2016-12-15T15:55:42.769Z,0
2016-12-15T15:56:45.616Z,0
2016-12-15T15:57:42.958Z,0
2016-12-15T15:58:43.906Z,0
2016-12-15T15:59:44.611Z,0
2016-12-15T16:00:43.478Z,0
2016-12-15T16:01:44.040Z,0
2016-12-15T16:02:45.376Z,0
2016-12-15T16:03:45.287Z,0
2016-12-15T16:04:43.703Z,0
2016-12-15T16:05:43.338Z,0
2016-12-15T16:06:43.853Z,0
2016-12-15T16:07:45.172Z,0
2016-12-15T16:08:44.976Z,0
2016-12-15T16:09:44.186Z,0
2016-12-15T16:10:44.672Z,0
2016-12-15T16:11:44.617Z,0
2016-12-15T16:12:43.858Z,0
2016-12-15T16:13:43.726Z,0
2016-12-15T16:14:43.684Z,0
2016-12-15T16:15:43.341Z,0
2016-12-15T16:16:45.071Z,0
2016-12-15T16:17:44.462Z,0
2016-12-15T16:18:46.127Z,0
2016-12-15T16:19:45.321Z,0
2016-12-15T16:20:44.784Z,0
2016-12-15T16:21:45.605Z,0
2016-12-15T16:22:44.970Z,0
2016-12-15T16:23:43.457Z,0
2016-12-15T16:24:45.468Z,0
2016-12-15T16:25:43.063Z,0
2016-12-15T16:26:43.588Z,0
2016-12-15T16:27:56.837Z,0
2016-12-15T16:28:43.322Z,0
2016-12-15T16:29:43.251Z,0
2016-12-15T16:30:43.758Z,0
2016-12-15T16:31:43.730Z,0
2016-12-15T16:32:43.665Z,0
2016-12-15T16:33:44.231Z,0
2016-12-15T16:34:43.965Z,0
2016-12-15T16:35:45.896Z,0
2016-12-15T16:36:43.940Z,0
2016-12-15T16:37:45.396Z,0
2016-12-15T16:38:43.113Z,0
2016-12-15T16:39:44.247Z,0
2016-12-15T16:40:44.972Z,0
2016-12-15T16:41:44.311Z,0
2016-12-15T16:42:43.588Z,0
2016-12-15T16:43:43.819Z,0
2016-12-15T16:44:43.207Z,0
2016-12-15T16:45:44.864Z,0
2016-12-15T16:46:45.042Z,0
2016-12-15T16:47:43.585Z,0
2016-12-15T16:48:43.944Z,0
2016-12-15T16:49:43.400Z,0
2016-12-15T16:50:43.778Z,0
2016-12-15T16:51:44.774Z,0
2016-12-15T16:52:43.990Z,0
2016-12-15T16:53:45.243Z,0
2016-12-15T16:54:44.586Z,0
2016-12-15T16:55:44.527Z,0
2016-12-15T16:56:45.764Z,0
2016-12-15T16:57:48.691Z,0
2016-12-15T16:58:44.623Z,0
2016-12-15T16:59:43.509Z,0
2016-12-15T17:00:44.020Z,0
2016-12-15T17:01:44.279Z,0
2016-12-15T17:02:45.522Z,0
2016-12-15T17:03:44.851Z,0
2016-12-15T17:04:44.891Z,0
2016-12-15T17:05:44.706Z,0
2016-12-15T17:06:43.396Z,0
2016-12-15T17:07:43.930Z,0
2016-12-15T17:08:44.884Z,0
2016-12-15T17:09:44.587Z,0
2016-12-15T17:10:43.777Z,0
2016-12-15T17:11:45.309Z,0
2016-12-15T17:12:44.027Z,0
2016-12-15T17:13:44.885Z,0
2016-12-15T17:14:47.420Z,0
2016-12-15T17:15:45.895Z,0
2016-12-15T17:16:46.358Z,0
2016-12-15T17:17:44.838Z,0
2016-12-15T17:18:44.045Z,0
2016-12-15T17:19:44.146Z,0
2016-12-15T17:20:45.049Z,0
2016-12-15T17:21:45.243Z,0
2016-12-15T17:22:44.696Z,0
2016-12-15T17:23:44.539Z,0
2016-12-15T17:24:44.481Z,0
2016-12-15T17:25:44.700Z,0
2016-12-15T17:26:46.029Z,0
2016-12-15T17:27:45.216Z,0
2016-12-15T17:28:44.275Z,0
2016-12-15T17:29:45.166Z,0
2016-12-15T17:30:43.688Z,0
2016-12-15T17:31:44.580Z,0
2016-12-15T17:32:43.960Z,0
2016-12-15T17:33:45.503Z,0
2016-12-15T17:34:44.132Z,0
2016-12-15T17:35:45.029Z,0
2016-12-15T17:36:45.662Z,0
2016-12-15T17:37:44.447Z,0
2016-12-15T17:39:10.799Z,0
2016-12-15T17:39:45.007Z,0
2016-12-15T17:40:44.447Z,0
2016-12-15T17:41:44.365Z,0
2016-12-15T17:42:46.071Z,0
2016-12-15T17:43:46.647Z,0
2016-12-15T17:47:09.197Z,0
2016-12-15T17:48:47.950Z,0
2016-12-15T17:49:46.717Z,0
2016-12-15T17:50:45.916Z,0
2016-12-15T17:51:46.743Z,0
2016-12-15T17:52:45.549Z,0
2016-12-15T17:53:45.018Z,0
2016-12-15T17:54:46.995Z,0
2016-12-15T17:55:46.759Z,0
2016-12-15T17:56:47.029Z,0
2016-12-15T17:58:18.440Z,0
2016-12-15T17:58:46.688Z,0
2016-12-15T17:59:47.671Z,0
2016-12-15T18:00:46.516Z,0
2016-12-15T18:01:47.242Z,0
2016-12-15T18:02:47.095Z,0
2016-12-15T18:03:44.918Z,0
2016-12-15T18:04:44.867Z,0
2016-12-15T18:05:47.213Z,0
2016-12-15T18:06:47.552Z,0
2016-12-15T18:07:47.470Z,0
2016-12-15T18:08:48.820Z,0
2016-12-15T18:09:46.342Z,0
2016-12-15T18:10:47.874Z,0
2016-12-15T18:11:48.106Z,0
2016-12-15T18:12:46.487Z,0
2016-12-15T18:13:46.491Z,0
2016-12-15T18:14:46.400Z,0
2016-12-15T18:17:09.955Z,0
2016-12-15T18:18:55.588Z,0
2016-12-15T18:19:46.907Z,0
2016-12-15T18:20:48.041Z,0
2016-12-15T18:21:47.693Z,0
2016-12-15T18:22:47.768Z,0
2016-12-15T18:23:47.300Z,0
2016-12-15T18:24:46.529Z,0
2016-12-15T18:25:46.880Z,0
2016-12-15T18:26:48.208Z,0
2016-12-15T18:27:47.238Z,0
2016-12-15T18:28:47.710Z,0
2016-12-15T18:29:47.344Z,0
2016-12-15T18:30:47.434Z,0
2016-12-15T18:31:47.192Z,0